Time;durP1;ratioP1;P1;durP2;ratioP2;P2;SDS_P1;SDS_P2;PMS_P1;PMS_P2;Temp;Humidity;BMP_temperature;BMP_pressure;BME280_temperature;BME280_humidity;BME280_pressure;Samples;Min_cycle;Max_cycle;Signal;HPM_P1;HPM_P2
2022/07/19 00:00:53;;;;;;;;;;;21.30;65.50;;;;;;1989561;28;19913;-62
2022/07/19 00:01:52;;;;;;;;;;;21.30;65.60;;;;;;1989683;28;19918;-62
2022/07/19 00:02:51;;;;;;;;;;;21.30;65.60;;;;;;1989776;28;19912;-62
2022/07/19 00:03:49;;;;;;;;;;;21.30;65.50;;;;;;1989392;28;20273;-62
2022/07/19 00:04:48;;;;;;;;;;;21.30;65.50;;;;;;1989520;28;19989;-62
2022/07/19 00:05:46;;;;;;;;;;;21.30;65.50;;;;;;1989464;28;20361;-61
2022/07/19 00:06:45;;;;;;;;;;;21.30;65.50;;;;;;1989654;28;19913;-62
2022/07/19 00:07:45;;;;;;;;;;;21.30;65.60;;;;;;1989446;28;19938;-62
2022/07/19 00:08:43;;;;;;;;;;;21.30;65.50;;;;;;1989317;28;19949;-62
2022/07/19 00:09:42;;;;;;;;;;;21.30;65.60;;;;;;1989943;28;19910;-62
2022/07/19 00:10:40;;;;;;;;;;;21.30;65.60;;;;;;1989386;28;19997;-62
2022/07/19 00:11:39;;;;;;;;;;;21.30;65.60;;;;;;1989531;28;19949;-62
2022/07/19 00:12:39;;;;;;;;;;;21.30;65.60;;;;;;1989894;28;19906;-61
2022/07/19 00:13:37;;;;;;;;;;;21.30;65.60;;;;;;1989740;28;19957;-62
2022/07/19 00:14:36;;;;;;;;;;;21.30;65.60;;;;;;1989889;28;19914;-61
2022/07/19 00:15:34;;;;;;;;;;;21.30;65.60;;;;;;1996644;28;19910;-61
2022/07/19 00:16:33;;;;;;;;;;;21.30;65.70;;;;;;1997101;28;19913;-61
2022/07/19 00:17:31;;;;;;;;;;;21.30;66.40;;;;;;1990417;28;19906;-62
2022/07/19 00:18:30;;;;;;;;;;;21.30;65.60;;;;;;1990029;28;20001;-62
2022/07/19 00:19:28;;;;;;;;;;;21.30;65.60;;;;;;1993400;28;20005;-61
2022/07/19 00:20:27;;;;;;;;;;;21.30;65.60;;;;;;2000416;28;19957;-61
2022/07/19 00:21:25;;;;;;;;;;;21.30;65.70;;;;;;2000429;28;19945;-61
2022/07/19 00:22:24;;;;;;;;;;;21.30;65.70;;;;;;1989836;28;19913;-61
2022/07/19 00:23:22;;;;;;;;;;;21.30;65.70;;;;;;1990013;28;19952;-62
2022/07/19 00:24:21;;;;;;;;;;;21.30;65.70;;;;;;1990015;28;19906;-61
2022/07/19 00:25:19;;;;;;;;;;;21.30;65.70;;;;;;1989753;28;19910;-62
2022/07/19 00:26:17;;;;;;;;;;;21.30;65.70;;;;;;1990152;28;20009;-61
2022/07/19 00:27:16;;;;;;;;;;;21.30;65.70;;;;;;1990322;28;19917;-61
2022/07/19 00:28:14;;;;;;;;;;;21.30;66.40;;;;;;1990242;28;19910;-62
2022/07/19 00:29:13;;;;;;;;;;;21.30;65.70;;;;;;1990202;28;19910;-63
2022/07/19 00:30:11;;;;;;;;;;;21.30;65.80;;;;;;1990340;28;20294;-63
2022/07/19 00:31:10;;;;;;;;;;;21.30;65.80;;;;;;1989756;28;19906;-63
2022/07/19 00:32:09;;;;;;;;;;;21.30;65.80;;;;;;1989632;28;19941;-62
2022/07/19 00:33:08;;;;;;;;;;;21.30;65.80;;;;;;1989870;28;19910;-63
2022/07/19 00:34:07;;;;;;;;;;;21.30;65.80;;;;;;1996599;28;19910;-62
2022/07/19 00:35:05;;;;;;;;;;;21.30;65.80;;;;;;1998316;28;19965;-62
2022/07/19 00:36:04;;;;;;;;;;;21.30;65.80;;;;;;1998196;28;19905;-62
2022/07/19 00:37:03;;;;;;;;;;;21.30;65.80;;;;;;1998559;28;19965;-63
2022/07/19 00:38:08;;;;;;;;;;;21.30;65.80;;;;;;1998453;28;19905;-62
2022/07/19 00:39:06;;;;;;;;;;;21.30;65.80;;;;;;1998348;28;19917;-63
2022/07/19 00:40:05;;;;;;;;;;;21.30;65.80;;;;;;1993627;28;19928;-63
2022/07/19 00:41:04;;;;;;;;;;;21.30;65.80;;;;;;1997857;28;19906;-62
2022/07/19 00:42:02;;;;;;;;;;;21.30;65.80;;;;;;1998470;28;19894;-62
2022/07/19 00:43:01;;;;;;;;;;;21.30;65.90;;;;;;1998414;28;19906;-63
2022/07/19 00:43:59;;;;;;;;;;;21.30;65.80;;;;;;1998330;28;19957;-62
2022/07/19 00:44:58;;;;;;;;;;;21.30;65.80;;;;;;1998385;28;19905;-63
2022/07/19 00:45:57;;;;;;;;;;;21.30;65.90;;;;;;1998385;28;19902;-64
2022/07/19 00:46:55;;;;;;;;;;;21.30;65.90;;;;;;1998356;28;19974;-62
2022/07/19 00:47:54;;;;;;;;;;;21.30;65.90;;;;;;1998110;28;19921;-62
2022/07/19 00:48:53;;;;;;;;;;;21.30;65.90;;;;;;1993968;28;19989;-63
2022/07/19 00:49:51;;;;;;;;;;;21.30;65.90;;;;;;1998091;28;19906;-62
2022/07/19 00:50:50;;;;;;;;;;;21.30;65.80;;;;;;1997920;28;19969;-63
2022/07/19 00:51:51;;;;;;;;;;;21.30;65.90;;;;;;1997763;28;19894;-63
2022/07/19 00:52:51;;;;;;;;;;;21.30;65.90;;;;;;1997867;28;19917;-63
2022/07/19 00:53:50;;;;;;;;;;;21.30;65.90;;;;;;1998038;28;19906;-62
2022/07/19 00:54:52;;;;;;;;;;;21.30;65.90;;;;;;1997026;28;19945;-62
2022/07/19 00:55:51;;;;;;;;;;;21.30;65.90;;;;;;1990302;28;19913;-63
2022/07/19 00:56:50;;;;;;;;;;;21.30;65.90;;;;;;1990499;28;19906;-63
2022/07/19 00:57:49;;;;;;;;;;;21.30;66.00;;;;;;1990140;28;19906;-63
2022/07/19 00:58:48;;;;;;;;;;;21.30;65.90;;;;;;1990463;28;20265;-63
2022/07/19 00:59:47;;;;;;;;;;;21.30;66.00;;;;;;1998024;28;19917;-63
2022/07/19 01:00:45;;;;;;;;;;;21.30;66.00;;;;;;1998125;28;19906;-63
2022/07/19 01:01:44;;;;;;;;;;;21.30;66.00;;;;;;1998350;28;19901;-63
2022/07/19 01:02:43;;;;;;;;;;;21.30;66.00;;;;;;1998178;28;20384;-63
2022/07/19 01:03:42;;;;;;;;;;;21.30;66.00;;;;;;1998710;28;19917;-63
2022/07/19 01:04:41;;;;;;;;;;;21.30;66.00;;;;;;1998650;28;19901;-64
2022/07/19 01:05:40;;;;;;;;;;;21.30;66.10;;;;;;1998642;28;19969;-63
2022/07/19 01:06:40;;;;;;;;;;;21.30;66.10;;;;;;1998560;28;19906;-63
2022/07/19 01:07:41;;;;;;;;;;;21.30;66.10;;;;;;1998470;28;19921;-63
2022/07/19 01:08:40;;;;;;;;;;;21.30;66.10;;;;;;1998566;28;19906;-63
2022/07/19 01:09:40;;;;;;;;;;;21.30;66.10;;;;;;1998200;28;19906;-63
2022/07/19 01:10:38;;;;;;;;;;;21.30;66.10;;;;;;1997639;28;19917;-63
2022/07/19 01:11:38;;;;;;;;;;;21.30;66.10;;;;;;1993546;28;19913;-63
2022/07/19 01:12:37;;;;;;;;;;;21.30;66.10;;;;;;1990702;28;19910;-62
2022/07/19 01:13:35;;;;;;;;;;;21.30;66.10;;;;;;1997013;28;19925;-63
2022/07/19 01:14:35;;;;;;;;;;;21.30;66.10;;;;;;1996394;28;19906;-63
2022/07/19 01:15:34;;;;;;;;;;;21.30;66.10;;;;;;1997343;28;19945;-62
2022/07/19 01:16:32;;;;;;;;;;;21.20;66.00;;;;;;2004759;28;19932;-63
2022/07/19 01:17:32;;;;;;;;;;;21.30;66.10;;;;;;2004772;28;19981;-63
2022/07/19 01:18:30;;;;;;;;;;;21.30;66.10;;;;;;1997727;28;19921;-63
2022/07/19 01:19:29;;;;;;;;;;;21.30;66.10;;;;;;2004291;28;19957;-63
2022/07/19 01:20:29;;;;;;;;;;;21.30;66.10;;;;;;2004686;28;19912;-63
2022/07/19 01:21:30;;;;;;;;;;;21.30;66.20;;;;;;1997636;28;19914;-63
2022/07/19 01:22:29;;;;;;;;;;;21.20;66.00;;;;;;1997382;28;19894;-62
2022/07/19 01:23:27;;;;;;;;;;;21.20;66.10;;;;;;1996939;28;19929;-62
2022/07/19 01:24:27;;;;;;;;;;;21.20;66.00;;;;;;1997126;28;19910;-63
2022/07/19 01:25:27;;;;;;;;;;;21.20;66.00;;;;;;1990501;28;20321;-62
2022/07/19 01:26:25;;;;;;;;;;;21.30;66.20;;;;;;1993605;28;19933;-63
2022/07/19 01:27:24;;;;;;;;;;;21.30;66.20;;;;;;1989835;28;19972;-62
2022/07/19 01:28:22;;;;;;;;;;;21.20;66.00;;;;;;1995597;28;20342;-63
2022/07/19 01:29:21;;;;;;;;;;;21.20;66.00;;;;;;1995436;28;19925;-63
2022/07/19 01:30:21;;;;;;;;;;;21.30;66.20;;;;;;1994894;28;19917;-62
2022/07/19 01:31:20;;;;;;;;;;;21.20;66.00;;;;;;1991911;28;19916;-63
2022/07/19 01:32:18;;;;;;;;;;;21.30;66.20;;;;;;1989409;28;20277;-63
2022/07/19 01:33:17;;;;;;;;;;;21.20;66.10;;;;;;1991535;28;20364;-63
2022/07/19 01:34:15;;;;;;;;;;;21.30;66.20;;;;;;1994673;28;19929;-62
2022/07/19 01:35:14;;;;;;;;;;;21.30;66.20;;;;;;1994940;28;19930;-63
2022/07/19 01:36:12;;;;;;;;;;;21.30;66.20;;;;;;1988992;28;19913;-63
2022/07/19 01:37:11;;;;;;;;;;;21.30;66.20;;;;;;1989005;28;19913;-62
2022/07/19 01:38:09;;;;;;;;;;;21.20;66.10;;;;;;1988958;28;19913;-63
2022/07/19 01:39:08;;;;;;;;;;;21.30;66.20;;;;;;1989071;28;19906;-62
2022/07/19 01:40:08;;;;;;;;;;;21.30;66.20;;;;;;1989033;28;19960;-63
2022/07/19 01:41:07;;;;;;;;;;;21.30;66.20;;;;;;1988291;28;19945;-63
2022/07/19 01:42:05;;;;;;;;;;;21.30;66.20;;;;;;1988489;28;20349;-62
2022/07/19 01:43:06;;;;;;;;;;;21.30;66.20;;;;;;1989033;28;19912;-62
2022/07/19 01:44:05;;;;;;;;;;;21.30;66.20;;;;;;1990370;28;20358;-62
2022/07/19 01:45:04;;;;;;;;;;;21.20;66.20;;;;;;1990596;28;19941;-62
2022/07/19 01:46:04;;;;;;;;;;;21.20;66.10;;;;;;1990588;28;20334;-62
2022/07/19 01:47:02;;;;;;;;;;;21.30;66.30;;;;;;1990365;28;20361;-62
2022/07/19 01:48:01;;;;;;;;;;;21.30;66.30;;;;;;1990363;28;20273;-62
2022/07/19 01:49:01;;;;;;;;;;;21.30;66.30;;;;;;1990411;28;19913;-62
2022/07/19 01:49:59;;;;;;;;;;;21.30;66.30;;;;;;1990410;28;20346;-62
2022/07/19 01:50:58;;;;;;;;;;;21.30;66.30;;;;;;1997347;28;19928;-62
2022/07/19 01:51:56;;;;;;;;;;;21.30;66.30;;;;;;1997573;28;19910;-61
2022/07/19 01:52:55;;;;;;;;;;;21.30;66.30;;;;;;1990766;28;20323;-62
2022/07/19 01:53:53;;;;;;;;;;;21.30;66.40;;;;;;1990318;28;19906;-62
2022/07/19 01:54:52;;;;;;;;;;;21.30;66.30;;;;;;1990344;28;19906;-62
2022/07/19 01:55:50;;;;;;;;;;;21.30;66.40;;;;;;1990204;28;19913;-62
2022/07/19 01:56:49;;;;;;;;;;;21.30;66.40;;;;;;1990273;28;19945;-61
2022/07/19 01:57:49;;;;;;;;;;;21.30;67.00;;;;;;1990307;28;19906;-62
2022/07/19 01:58:47;;;;;;;;;;;21.20;66.20;;;;;;1990264;28;20401;-62
2022/07/19 01:59:46;;;;;;;;;;;21.30;66.40;;;;;;1990516;28;20028;-62
2022/07/19 02:00:45;;;;;;;;;;;21.30;66.40;;;;;;1990358;28;20369;-62
2022/07/19 02:01:44;;;;;;;;;;;21.30;66.40;;;;;;1990138;28;19914;-63
2022/07/19 02:02:43;;;;;;;;;;;21.30;66.40;;;;;;1990338;28;20314;-62
2022/07/19 02:03:41;;;;;;;;;;;21.30;66.40;;;;;;1990606;28;19913;-62
2022/07/19 02:04:41;;;;;;;;;;;21.30;66.40;;;;;;1989827;28;20349;-62
2022/07/19 02:05:40;;;;;;;;;;;21.20;66.30;;;;;;1990120;28;19906;-62
2022/07/19 02:06:38;;;;;;;;;;;21.30;66.40;;;;;;1990066;28;19906;-63
2022/07/19 02:07:37;;;;;;;;;;;21.20;66.30;;;;;;1990226;28;19933;-62
2022/07/19 02:08:35;;;;;;;;;;;21.30;66.50;;;;;;1997404;28;19980;-62
2022/07/19 02:09:34;;;;;;;;;;;21.30;66.40;;;;;;1997438;28;19996;-62
2022/07/19 02:10:32;;;;;;;;;;;21.30;66.40;;;;;;1990659;28;19906;-62
2022/07/19 02:11:37;;;;;;;;;;;21.30;66.50;;;;;;1990359;28;19914;-62
2022/07/19 02:12:37;;;;;;;;;;;21.30;66.50;;;;;;1990274;28;20274;-63
2022/07/19 02:13:35;;;;;;;;;;;21.20;66.40;;;;;;1990236;28;19992;-62
2022/07/19 02:14:34;;;;;;;;;;;21.30;66.50;;;;;;1990027;28;19966;-63
2022/07/19 02:15:33;;;;;;;;;;;21.30;66.50;;;;;;1990160;28;19906;-62
2022/07/19 02:16:31;;;;;;;;;;;21.30;66.40;;;;;;1990203;28;20329;-63
2022/07/19 02:17:30;;;;;;;;;;;21.30;66.40;;;;;;1990263;28;19906;-62
2022/07/19 02:18:28;;;;;;;;;;;21.30;66.40;;;;;;1990069;28;20448;-62
2022/07/19 02:19:27;;;;;;;;;;;21.30;66.40;;;;;;1990146;28;20005;-63
2022/07/19 02:20:25;;;;;;;;;;;21.30;66.40;;;;;;1990189;28;19906;-63
2022/07/19 02:21:24;;;;;;;;;;;21.30;66.50;;;;;;1990101;28;19906;-62
2022/07/19 02:22:22;;;;;;;;;;;21.20;66.40;;;;;;1990098;28;20322;-62
2022/07/19 02:23:21;;;;;;;;;;;21.20;66.40;;;;;;1990166;28;19962;-62
2022/07/19 02:24:19;;;;;;;;;;;21.20;66.40;;;;;;1990245;28;20020;-62
2022/07/19 02:25:18;;;;;;;;;;;21.30;66.50;;;;;;1990477;28;20410;-62
2022/07/19 02:26:18;;;;;;;;;;;21.30;66.50;;;;;;1990282;28;19965;-63
2022/07/19 02:27:16;;;;;;;;;;;21.30;66.50;;;;;;1989943;28;19906;-62
2022/07/19 02:28:15;;;;;;;;;;;21.20;66.40;;;;;;1990045;28;20249;-62
2022/07/19 02:29:13;;;;;;;;;;;21.20;66.40;;;;;;1990150;28;20354;-62
2022/07/19 02:30:12;;;;;;;;;;;21.20;66.40;;;;;;1990046;28;19933;-62
2022/07/19 02:31:10;;;;;;;;;;;21.20;66.40;;;;;;1989956;28;19956;-62
2022/07/19 02:32:09;;;;;;;;;;;21.30;66.50;;;;;;1990069;28;20000;-62
2022/07/19 02:33:07;;;;;;;;;;;21.20;66.40;;;;;;1989915;28;19973;-62
2022/07/19 02:34:06;;;;;;;;;;;21.20;66.40;;;;;;1990026;28;19914;-63
2022/07/19 02:35:06;;;;;;;;;;;21.20;66.40;;;;;;1990091;28;19949;-62
2022/07/19 02:36:04;;;;;;;;;;;21.30;66.60;;;;;;1997111;28;20478;-63
2022/07/19 02:37:03;;;;;;;;;;;21.20;66.50;;;;;;1997228;28;19984;-62
2022/07/19 02:38:01;;;;;;;;;;;21.20;66.50;;;;;;1990603;28;19913;-62
2022/07/19 02:39:00;;;;;;;;;;;21.20;66.50;;;;;;1989888;28;20369;-62
2022/07/19 02:39:58;;;;;;;;;;;21.20;67.20;;;;;;1989912;28;20357;-62
2022/07/19 02:40:57;;;;;;;;;;;21.20;66.50;;;;;;1989994;28;19913;-62
2022/07/19 02:41:55;;;;;;;;;;;21.20;66.50;;;;;;1990106;28;20277;-62
2022/07/19 02:42:54;;;;;;;;;;;21.20;66.50;;;;;;1989931;28;20266;-62
2022/07/19 02:43:52;;;;;;;;;;;21.20;66.50;;;;;;1989985;28;19906;-62
2022/07/19 02:44:51;;;;;;;;;;;21.20;66.50;;;;;;1990019;28;19965;-62
2022/07/19 02:45:50;;;;;;;;;;;21.20;66.50;;;;;;1989990;28;19949;-62
2022/07/19 02:46:50;;;;;;;;;;;21.20;66.50;;;;;;1989920;28;20254;-62
2022/07/19 02:47:48;;;;;;;;;;;21.20;66.50;;;;;;1989905;28;19906;-62
2022/07/19 02:48:47;;;;;;;;;;;21.20;66.50;;;;;;1989817;28;19906;-63
2022/07/19 02:49:45;;;;;;;;;;;21.20;66.80;;;;;;1989964;28;19906;-62
2022/07/19 02:50:44;;;;;;;;;;;21.20;66.50;;;;;;1989924;28;19906;-62
2022/07/19 02:51:42;;;;;;;;;;;21.20;66.50;;;;;;1989834;28;20365;-62
2022/07/19 02:52:41;;;;;;;;;;;21.20;66.50;;;;;;1989751;28;19961;-63
2022/07/19 02:53:39;;;;;;;;;;;21.20;67.30;;;;;;1989941;28;19906;-63
2022/07/19 02:54:38;;;;;;;;;;;21.20;66.60;;;;;;1989646;28;19949;-62
2022/07/19 02:55:38;;;;;;;;;;;21.20;66.60;;;;;;1989884;28;19917;-62
2022/07/19 02:56:36;;;;;;;;;;;21.20;66.50;;;;;;1989914;28;19997;-62
2022/07/19 02:57:35;;;;;;;;;;;21.20;66.60;;;;;;1989908;28;19947;-62
2022/07/19 02:58:33;;;;;;;;;;;21.20;66.60;;;;;;1989999;28;19910;-62
2022/07/19 02:59:32;;;;;;;;;;;21.20;66.60;;;;;;1989922;28;20251;-63
2022/07/19 03:00:30;;;;;;;;;;;21.20;66.60;;;;;;1989884;28;20318;-63
2022/07/19 03:01:29;;;;;;;;;;;21.20;66.60;;;;;;1989735;28;19941;-62
2022/07/19 03:02:28;;;;;;;;;;;21.20;66.60;;;;;;1989825;28;19906;-62
2022/07/19 03:03:44;;;;;;;;;;;21.20;66.60;;;;;;1989655;28;20373;-62
2022/07/19 03:04:43;;;;;;;;;;;21.20;66.60;;;;;;1989723;28;19906;-62
2022/07/19 03:05:41;;;;;;;;;;;21.20;66.60;;;;;;1989845;28;19921;-62
2022/07/19 03:06:40;;;;;;;;;;;21.20;66.70;;;;;;1989736;28;19960;-62
2022/07/19 03:07:38;;;;;;;;;;;21.20;66.60;;;;;;1996973;28;19941;-62
2022/07/19 03:08:37;;;;;;;;;;;21.20;66.60;;;;;;1996926;28;20353;-62
2022/07/19 03:09:35;;;;;;;;;;;21.20;66.70;;;;;;1990306;28;19913;-62
2022/07/19 03:10:35;;;;;;;;;;;21.20;66.60;;;;;;1989672;28;19910;-63
2022/07/19 03:11:34;;;;;;;;;;;21.20;66.70;;;;;;1989767;28;19913;-62
2022/07/19 03:12:32;;;;;;;;;;;21.20;66.70;;;;;;1989663;28;19912;-62
2022/07/19 03:13:31;;;;;;;;;;;21.20;66.70;;;;;;1989823;28;19957;-62
2022/07/19 03:14:29;;;;;;;;;;;21.20;66.70;;;;;;1989783;28;19906;-61
2022/07/19 03:15:27;;;;;;;;;;;21.20;66.70;;;;;;1989619;28;19912;-62
2022/07/19 03:16:26;;;;;;;;;;;21.20;66.60;;;;;;1989633;28;19921;-62
2022/07/19 03:17:24;;;;;;;;;;;21.20;66.70;;;;;;1989920;28;19906;-62
2022/07/19 03:18:24;;;;;;;;;;;21.20;66.70;;;;;;1989633;28;19912;-62
2022/07/19 03:19:25;;;;;;;;;;;21.20;66.70;;;;;;1989712;28;19906;-62
2022/07/19 03:20:23;;;;;;;;;;;21.20;66.70;;;;;;1989608;28;19906;-61
2022/07/19 03:21:22;;;;;;;;;;;21.20;66.70;;;;;;1989774;28;19912;-62
2022/07/19 03:22:20;;;;;;;;;;;21.20;66.70;;;;;;1989649;28;19994;-62
2022/07/19 03:23:19;;;;;;;;;;;21.20;66.70;;;;;;1989670;28;19917;-62
2022/07/19 03:24:17;;;;;;;;;;;21.20;66.70;;;;;;1989704;28;19917;-62
2022/07/19 03:25:16;;;;;;;;;;;21.20;66.80;;;;;;1989633;28;19916;-62
2022/07/19 03:26:14;;;;;;;;;;;21.20;66.70;;;;;;1989866;28;20004;-62
2022/07/19 03:27:13;;;;;;;;;;;21.20;66.70;;;;;;1989769;28;19921;-62
2022/07/19 03:28:11;;;;;;;;;;;21.20;66.80;;;;;;1989490;28;19942;-62
2022/07/19 03:29:10;;;;;;;;;;;21.20;66.70;;;;;;1989685;28;20018;-62
2022/07/19 03:30:09;;;;;;;;;;;21.20;66.80;;;;;;1989753;28;19913;-62
2022/07/19 03:31:08;;;;;;;;;;;21.20;66.80;;;;;;1989410;28;19912;-61
2022/07/19 03:32:06;;;;;;;;;;;21.20;66.80;;;;;;1989603;28;19906;-62
2022/07/19 03:33:06;;;;;;;;;;;21.20;66.80;;;;;;1989678;28;20378;-62
2022/07/19 03:34:05;;;;;;;;;;;21.20;67.50;;;;;;1989634;28;19906;-62
2022/07/19 03:35:05;;;;;;;;;;;21.20;66.80;;;;;;1989426;28;19957;-63
2022/07/19 03:36:04;;;;;;;;;;;21.20;66.80;;;;;;1989566;28;19906;-62
2022/07/19 03:37:02;;;;;;;;;;;21.10;66.70;;;;;;1989547;28;19906;-62
2022/07/19 03:38:01;;;;;;;;;;;21.10;66.70;;;;;;1989525;28;19912;-62
2022/07/19 03:39:00;;;;;;;;;;;21.10;66.70;;;;;;1989525;28;19917;-62
2022/07/19 03:39:58;;;;;;;;;;;21.10;66.70;;;;;;1989296;28;19906;-62
2022/07/19 03:40:56;;;;;;;;;;;21.10;66.70;;;;;;1989393;28;20012;-63
2022/07/19 03:41:55;;;;;;;;;;;21.20;66.80;;;;;;1989553;28;19993;-63
2022/07/19 03:42:53;;;;;;;;;;;21.20;66.80;;;;;;1989519;28;20099;-63
2022/07/19 03:43:52;;;;;;;;;;;21.20;66.80;;;;;;1989522;28;19906;-62
2022/07/19 03:44:50;;;;;;;;;;;21.20;66.80;;;;;;1989510;28;19929;-63
2022/07/19 03:45:50;;;;;;;;;;;21.10;66.80;;;;;;1996675;28;19917;-63
2022/07/19 03:46:48;;;;;;;;;;;21.10;66.80;;;;;;1996812;28;19949;-62
2022/07/19 03:47:46;;;;;;;;;;;21.10;66.80;;;;;;1990086;28;20279;-62
2022/07/19 03:48:45;;;;;;;;;;;21.20;66.90;;;;;;1989380;28;19913;-62
2022/07/19 03:49:43;;;;;;;;;;;21.20;66.90;;;;;;1989489;28;19906;-62
2022/07/19 03:50:42;;;;;;;;;;;21.10;67.50;;;;;;1989450;28;19906;-62
2022/07/19 03:51:40;;;;;;;;;;;21.10;66.90;;;;;;1989235;28;19906;-61
2022/07/19 03:52:40;;;;;;;;;;;21.10;66.80;;;;;;1989380;28;19910;-61
2022/07/19 03:53:38;;;;;;;;;;;21.10;66.80;;;;;;1996627;28;20206;-62
2022/07/19 03:54:37;;;;;;;;;;;21.10;66.90;;;;;;1996700;28;19910;-62
2022/07/19 03:55:35;;;;;;;;;;;21.20;67.00;;;;;;1989893;28;19906;-62
2022/07/19 03:56:34;;;;;;;;;;;21.20;67.00;;;;;;1988754;28;19906;-62
2022/07/19 03:57:32;;;;;;;;;;;21.20;67.00;;;;;;1988890;28;19906;-63
2022/07/19 03:58:31;;;;;;;;;;;21.10;66.90;;;;;;1989286;28;20050;-62
2022/07/19 03:59:30;;;;;;;;;;;21.20;67.00;;;;;;1989342;28;19946;-62
2022/07/19 04:00:29;;;;;;;;;;;21.10;66.90;;;;;;1989331;28;19913;-62
2022/07/19 04:01:28;;;;;;;;;;;21.10;66.90;;;;;;1989130;28;20369;-62
2022/07/19 04:02:26;;;;;;;;;;;21.10;66.90;;;;;;1989556;28;19906;-62
2022/07/19 04:03:25;;;;;;;;;;;21.20;67.00;;;;;;1989356;28;19965;-62
2022/07/19 04:04:24;;;;;;;;;;;21.10;66.90;;;;;;1989170;28;19906;-62
2022/07/19 04:05:23;;;;;;;;;;;21.10;66.90;;;;;;1989313;28;20020;-62
2022/07/19 04:06:21;;;;;;;;;;;21.10;66.90;;;;;;1988920;28;19906;-63
2022/07/19 04:07:20;;;;;;;;;;;21.10;66.90;;;;;;1989364;28;19953;-62
2022/07/19 04:08:18;;;;;;;;;;;21.10;66.90;;;;;;1989389;28;19906;-63
2022/07/19 04:09:17;;;;;;;;;;;21.10;66.90;;;;;;1989494;28;19910;-63
2022/07/19 04:10:15;;;;;;;;;;;21.10;66.90;;;;;;1989281;28;19906;-62
2022/07/19 04:11:14;;;;;;;;;;;21.10;66.90;;;;;;1989333;28;19954;-63
2022/07/19 04:12:12;;;;;;;;;;;21.10;66.90;;;;;;1989602;28;19912;-62
2022/07/19 04:13:11;;;;;;;;;;;21.10;66.90;;;;;;1989369;28;20000;-62
2022/07/19 04:14:09;;;;;;;;;;;21.10;66.90;;;;;;1996465;28;20333;-61
2022/07/19 04:15:08;;;;;;;;;;;21.10;66.90;;;;;;1996503;28;20258;-62
2022/07/19 04:16:06;;;;;;;;;;;21.10;66.90;;;;;;1989793;28;19941;-62
2022/07/19 04:17:05;;;;;;;;;;;21.10;67.00;;;;;;1989213;28;20269;-61
2022/07/19 04:18:03;;;;;;;;;;;21.10;67.00;;;;;;1989239;28;19913;-62
2022/07/19 04:19:02;;;;;;;;;;;21.10;67.00;;;;;;1989264;28;19914;-62
2022/07/19 04:20:00;;;;;;;;;;;21.10;66.90;;;;;;1989146;28;19928;-62
2022/07/19 04:20:59;;;;;;;;;;;21.10;67.00;;;;;;1989222;28;19906;-62
2022/07/19 04:21:57;;;;;;;;;;;21.10;67.00;;;;;;1989256;28;19906;-62
2022/07/19 04:22:57;;;;;;;;;;;21.10;66.90;;;;;;1989328;28;19929;-62
2022/07/19 04:23:55;;;;;;;;;;;21.10;67.00;;;;;;1989149;28;19906;-62
2022/07/19 04:24:53;;;;;;;;;;;21.10;67.00;;;;;;1989326;28;19913;-62
2022/07/19 04:25:52;;;;;;;;;;;21.10;67.00;;;;;;1989145;28;19906;-62
2022/07/19 04:26:51;;;;;;;;;;;21.10;67.00;;;;;;1989209;28;19988;-62
2022/07/19 04:27:49;;;;;;;;;;;21.10;67.00;;;;;;1989312;28;19906;-62
2022/07/19 04:28:48;;;;;;;;;;;21.10;67.00;;;;;;1989173;28;20005;-62
2022/07/19 04:29:47;;;;;;;;;;;21.10;67.00;;;;;;1989204;28;19997;-62
2022/07/19 04:30:45;;;;;;;;;;;21.20;67.10;;;;;;1989190;28;20365;-62
2022/07/19 04:31:44;;;;;;;;;;;21.10;67.00;;;;;;1989332;28;19956;-62
2022/07/19 04:32:42;;;;;;;;;;;21.10;67.00;;;;;;1989289;28;19906;-62
2022/07/19 04:33:41;;;;;;;;;;;21.10;67.00;;;;;;1989209;28;20269;-62
2022/07/19 04:34:39;;;;;;;;;;;21.10;67.00;;;;;;1989248;28;19920;-62
2022/07/19 04:35:38;;;;;;;;;;;21.10;67.00;;;;;;1989166;28;20416;-62
2022/07/19 04:36:36;;;;;;;;;;;21.10;67.10;;;;;;1989143;28;19953;-62
2022/07/19 04:37:34;;;;;;;;;;;21.10;67.10;;;;;;1989381;28;19945;-62
2022/07/19 04:38:33;;;;;;;;;;;21.10;67.00;;;;;;1988914;28;19933;-62
2022/07/19 04:39:32;;;;;;;;;;;21.10;67.00;;;;;;1989191;28;20111;-61
2022/07/19 04:40:30;;;;;;;;;;;21.10;67.10;;;;;;1989132;28;19913;-63
2022/07/19 04:41:28;;;;;;;;;;;21.10;67.10;;;;;;1989191;28;19913;-63
2022/07/19 04:42:27;;;;;;;;;;;21.10;67.10;;;;;;1989208;28;19934;-61
2022/07/19 04:43:26;;;;;;;;;;;21.10;67.00;;;;;;1989425;28;20310;-61
2022/07/19 04:44:24;;;;;;;;;;;21.10;67.10;;;;;;1989237;28;19945;-63
2022/07/19 04:45:23;;;;;;;;;;;21.10;67.10;;;;;;1989178;28;19906;-61
2022/07/19 04:46:21;;;;;;;;;;;21.10;67.10;;;;;;1989186;28;19961;-63
2022/07/19 04:47:19;;;;;;;;;;;21.10;67.10;;;;;;1989187;28;19993;-63
2022/07/19 04:48:18;;;;;;;;;;;21.10;67.10;;;;;;1989302;28;19914;-63
2022/07/19 04:49:16;;;;;;;;;;;21.10;67.10;;;;;;1989185;28;20420;-63
2022/07/19 04:50:15;;;;;;;;;;;21.10;67.10;;;;;;1988999;28;20001;-63
2022/07/19 04:51:13;;;;;;;;;;;21.10;67.10;;;;;;1989127;28;20354;-63
2022/07/19 04:52:12;;;;;;;;;;;21.20;67.30;;;;;;1989017;28;19941;-63
2022/07/19 04:53:10;;;;;;;;;;;21.10;67.20;;;;;;1989098;28;20005;-63
2022/07/19 04:54:09;;;;;;;;;;;21.10;67.20;;;;;;1989292;28;19961;-63
2022/07/19 04:55:08;;;;;;;;;;;21.10;67.10;;;;;;1989188;28;20409;-63
2022/07/19 04:56:06;;;;;;;;;;;21.10;67.10;;;;;;1989196;28;19906;-63
2022/07/19 04:57:05;;;;;;;;;;;21.20;67.20;;;;;;1989218;28;19945;-62
2022/07/19 04:58:03;;;;;;;;;;;21.10;67.10;;;;;;1989261;28;19945;-63
2022/07/19 04:59:01;;;;;;;;;;;21.10;67.80;;;;;;1989058;28;20349;-63
2022/07/19 05:00:00;;;;;;;;;;;21.20;67.20;;;;;;1989351;28;19956;-62
2022/07/19 05:00:59;;;;;;;;;;;21.20;67.20;;;;;;1989117;28;20354;-63
2022/07/19 05:01:57;;;;;;;;;;;21.20;67.20;;;;;;1988916;28;19957;-63
2022/07/19 05:02:56;;;;;;;;;;;21.20;67.20;;;;;;1989113;28;19949;-63
2022/07/19 05:03:54;;;;;;;;;;;21.10;67.20;;;;;;1989115;28;19961;-63
2022/07/19 05:04:53;;;;;;;;;;;21.20;67.30;;;;;;1989183;28;20013;-62
2022/07/19 05:05:51;;;;;;;;;;;21.20;67.20;;;;;;1989078;28;19924;-63
2022/07/19 05:06:56;;;;;;;;;;;21.10;67.80;;;;;;1989130;28;19906;-63
2022/07/19 05:07:55;;;;;;;;;;;21.20;67.20;;;;;;1989257;28;19906;-63
2022/07/19 05:08:53;;;;;;;;;;;21.20;67.90;;;;;;1989121;28;19906;-63
2022/07/19 05:09:52;;;;;;;;;;;21.20;67.90;;;;;;1989106;28;19906;-63
2022/07/19 05:10:50;;;;;;;;;;;21.20;67.20;;;;;;1989036;28;19906;-63
2022/07/19 05:11:49;;;;;;;;;;;21.20;67.30;;;;;;1989164;28;19906;-63
2022/07/19 05:12:47;;;;;;;;;;;21.20;67.20;;;;;;1989025;28;19906;-63
2022/07/19 05:13:46;;;;;;;;;;;21.20;67.20;;;;;;1989064;28;20404;-63
2022/07/19 05:14:44;;;;;;;;;;;21.20;67.20;;;;;;1989239;28;19913;-63
2022/07/19 05:15:43;;;;;;;;;;;21.20;67.20;;;;;;1989030;28;20018;-63
2022/07/19 05:16:41;;;;;;;;;;;21.20;67.20;;;;;;1989077;28;19938;-63
2022/07/19 05:17:40;;;;;;;;;;;21.10;67.20;;;;;;1990104;28;19910;-63
2022/07/19 05:18:38;;;;;;;;;;;21.20;67.20;;;;;;1990516;28;19916;-63
2022/07/19 05:19:37;;;;;;;;;;;21.20;67.30;;;;;;1990557;28;20307;-63
2022/07/19 05:20:36;;;;;;;;;;;21.20;67.20;;;;;;1990434;28;19942;-63
2022/07/19 05:21:34;;;;;;;;;;;21.20;67.20;;;;;;1990638;28;19913;-63
2022/07/19 05:22:33;;;;;;;;;;;21.20;67.30;;;;;;1990508;28;19913;-63
2022/07/19 05:23:31;;;;;;;;;;;21.20;67.30;;;;;;1990447;28;20366;-62
2022/07/19 05:24:30;;;;;;;;;;;21.20;67.20;;;;;;1990368;28;19912;-62
2022/07/19 05:25:28;;;;;;;;;;;21.20;67.20;;;;;;1990406;28;19956;-62
2022/07/19 05:26:27;;;;;;;;;;;21.20;67.50;;;;;;1990476;28;19919;-62
2022/07/19 05:27:25;;;;;;;;;;;21.20;67.20;;;;;;1990548;28;19913;-62
2022/07/19 05:28:24;;;;;;;;;;;21.20;67.20;;;;;;1990548;28;19997;-63
2022/07/19 05:29:22;;;;;;;;;;;21.20;67.20;;;;;;1990469;28;19917;-62
2022/07/19 05:30:21;;;;;;;;;;;21.20;67.20;;;;;;1990533;28;20065;-62
2022/07/19 05:31:20;;;;;;;;;;;21.20;67.20;;;;;;1990525;28;19910;-62
2022/07/19 05:32:18;;;;;;;;;;;21.20;67.20;;;;;;1990401;28;20303;-62
2022/07/19 05:33:17;;;;;;;;;;;21.20;67.20;;;;;;1990541;28;19916;-62
2022/07/19 05:34:15;;;;;;;;;;;21.20;67.20;;;;;;1989732;28;19941;-62
2022/07/19 05:35:14;;;;;;;;;;;21.20;67.20;;;;;;1989803;28;19906;-62
2022/07/19 05:36:13;;;;;;;;;;;21.20;67.10;;;;;;1990343;28;20001;-62
2022/07/19 05:37:13;;;;;;;;;;;21.20;67.10;;;;;;1990456;28;19906;-62
2022/07/19 05:38:12;;;;;;;;;;;21.20;67.10;;;;;;1990316;28;19910;-62
2022/07/19 05:39:10;;;;;;;;;;;21.20;67.10;;;;;;1990417;28;19966;-62
2022/07/19 05:40:09;;;;;;;;;;;21.20;67.10;;;;;;1990390;28;19906;-62
2022/07/19 05:41:09;;;;;;;;;;;21.20;67.10;;;;;;1990475;28;19912;-62
2022/07/19 05:42:08;;;;;;;;;;;21.20;67.20;;;;;;1990574;28;19914;-63